Terminal Aerodrome Forecast
Issued by NWS Sioux Falls, SD

Home | Current Version | Previous Version | Graphics & Text | Print | Product List | Glossary On
Versions: 1 2 3 4 5 6 7 8 9 10 11 12 13 14 15 16 17 18 19
000
FTUS43 KFSD 251852 AAB
TAFFSD
TAF AMD
KFSD 251852Z 2519/2618 36005KT P6SM OVC008
      TEMPO 2520/2524 OVC012
     FM260000 VRB03KT P6SM BKN025
     FM260200 20004KT P6SM SCT025 BKN100
     FM261000 27010KT P6SM SCT100
     FM261400 31014G20KT P6SM SKC=

USA.gov is the U.S. government's official web portal to all federal, state and local government web resources and services.